sensor_id;sensor_type;location;lat;lon;timestamp;P1;durP1;ratioP1;P2;durP2;ratioP2
38427;SDS011;24211;49.980;19.776;2024-02-15T00:00:32;27.80;;;12.93;;
38427;SDS011;24211;49.980;19.776;2024-02-15T00:03:19;28.10;;;13.00;;
38427;SDS011;24211;49.980;19.776;2024-02-15T00:05:48;26.80;;;13.30;;
38427;SDS011;24211;49.980;19.776;2024-02-15T00:08:16;28.33;;;13.57;;
38427;SDS011;24211;49.980;19.776;2024-02-15T00:10:43;26.48;;;13.70;;
38427;SDS011;24211;49.980;19.776;2024-02-15T00:13:13;30.35;;;14.05;;
38427;SDS011;24211;49.980;19.776;2024-02-15T00:15:41;26.77;;;13.73;;
38427;SDS011;24211;49.980;19.776;2024-02-15T00:18:23;32.78;;;14.18;;
38427;SDS011;24211;49.980;19.776;2024-02-15T00:20:51;28.08;;;13.38;;
38427;SDS011;24211;49.980;19.776;2024-02-15T00:23:18;31.83;;;13.80;;
38427;SDS011;24211;49.980;19.776;2024-02-15T00:25:45;30.25;;;14.32;;
38427;SDS011;24211;49.980;19.776;2024-02-15T00:28:16;29.88;;;13.88;;
38427;SDS011;24211;49.980;19.776;2024-02-15T00:33:49;31.85;;;14.85;;
38427;SDS011;24211;49.980;19.776;2024-02-15T00:39:11;29.90;;;14.48;;
38427;SDS011;24211;49.980;19.776;2024-02-15T00:41:48;30.92;;;14.82;;
38427;SDS011;24211;49.980;19.776;2024-02-15T00:45:10;33.45;;;14.75;;
38427;SDS011;24211;49.980;19.776;2024-02-15T00:51:11;35.42;;;15.25;;
38427;SDS011;24211;49.980;19.776;2024-02-15T00:53:40;35.20;;;16.20;;
38427;SDS011;24211;49.980;19.776;2024-02-15T00:56:07;32.33;;;15.65;;
38427;SDS011;24211;49.980;19.776;2024-02-15T00:58:34;34.38;;;15.48;;
38427;SDS011;24211;49.980;19.776;2024-02-15T01:12:33;34.65;;;15.02;;
38427;SDS011;24211;49.980;19.776;2024-02-15T01:18:24;37.55;;;16.40;;
38427;SDS011;24211;49.980;19.776;2024-02-15T01:21:55;31.33;;;14.93;;
38427;SDS011;24211;49.980;19.776;2024-02-15T01:24:34;33.28;;;15.75;;
38427;SDS011;24211;49.980;19.776;2024-02-15T01:27:17;34.28;;;15.45;;
38427;SDS011;24211;49.980;19.776;2024-02-15T01:29:46;33.97;;;15.50;;
38427;SDS011;24211;49.980;19.776;2024-02-15T01:32:14;31.00;;;15.45;;
38427;SDS011;24211;49.980;19.776;2024-02-15T01:38:25;33.20;;;15.02;;
38427;SDS011;24211;49.980;19.776;2024-02-15T01:40:52;31.95;;;15.43;;
38427;SDS011;24211;49.980;19.776;2024-02-15T01:43:20;34.03;;;15.15;;
38427;SDS011;24211;49.980;19.776;2024-02-15T01:50:06;34.20;;;15.38;;
38427;SDS011;24211;49.980;19.776;2024-02-15T01:53:39;31.63;;;15.50;;
38427;SDS011;24211;49.980;19.776;2024-02-15T02:05:12;34.40;;;16.60;;
38427;SDS011;24211;49.980;19.776;2024-02-15T02:10:52;32.78;;;16.75;;
38427;SDS011;24211;49.980;19.776;2024-02-15T02:13:20;35.67;;;16.90;;
38427;SDS011;24211;49.980;19.776;2024-02-15T02:15:49;37.30;;;17.88;;
38427;SDS011;24211;49.980;19.776;2024-02-15T02:18:16;37.45;;;17.33;;
38427;SDS011;24211;49.980;19.776;2024-02-15T02:20:43;33.05;;;16.65;;
38427;SDS011;24211;49.980;19.776;2024-02-15T02:23:13;39.53;;;17.35;;
38427;SDS011;24211;49.980;19.776;2024-02-15T02:25:55;36.83;;;16.92;;
38427;SDS011;24211;49.980;19.776;2024-02-15T02:28:23;35.63;;;15.85;;
38427;SDS011;24211;49.980;19.776;2024-02-15T02:37:43;31.08;;;15.45;;
38427;SDS011;24211;49.980;19.776;2024-02-15T02:40:10;35.67;;;16.42;;
38427;SDS011;24211;49.980;19.776;2024-02-15T02:42:55;33.92;;;16.60;;
38427;SDS011;24211;49.980;19.776;2024-02-15T02:45:32;36.22;;;16.63;;
38427;SDS011;24211;49.980;19.776;2024-02-15T02:48:15;33.03;;;16.48;;
38427;SDS011;24211;49.980;19.776;2024-02-15T02:50:45;36.30;;;16.60;;
38427;SDS011;24211;49.980;19.776;2024-02-15T02:53:15;35.08;;;17.40;;
38427;SDS011;24211;49.980;19.776;2024-02-15T02:55:47;36.17;;;16.90;;
38427;SDS011;24211;49.980;19.776;2024-02-15T02:58:14;34.78;;;16.95;;
38427;SDS011;24211;49.980;19.776;2024-02-15T03:00:42;36.25;;;16.30;;
38427;SDS011;24211;49.980;19.776;2024-02-15T03:03:10;36.85;;;16.60;;
38427;SDS011;24211;49.980;19.776;2024-02-15T03:05:42;35.80;;;17.10;;
38427;SDS011;24211;49.980;19.776;2024-02-15T03:08:11;33.25;;;15.57;;
38427;SDS011;24211;49.980;19.776;2024-02-15T03:13:46;37.15;;;17.25;;
38427;SDS011;24211;49.980;19.776;2024-02-15T03:16:21;40.55;;;18.48;;
38427;SDS011;24211;49.980;19.776;2024-02-15T03:19:05;40.92;;;18.95;;
38427;SDS011;24211;49.980;19.776;2024-02-15T03:21:39;43.00;;;19.23;;
38427;SDS011;24211;49.980;19.776;2024-02-15T03:24:08;40.28;;;18.80;;
38427;SDS011;24211;49.980;19.776;2024-02-15T03:29:30;40.08;;;18.27;;
38427;SDS011;24211;49.980;19.776;2024-02-15T03:35:25;39.70;;;18.88;;
38427;SDS011;24211;49.980;19.776;2024-02-15T03:37:55;40.05;;;19.52;;
38427;SDS011;24211;49.980;19.776;2024-02-15T03:40:23;45.33;;;19.67;;
38427;SDS011;24211;49.980;19.776;2024-02-15T03:42:54;40.33;;;18.75;;
38427;SDS011;24211;49.980;19.776;2024-02-15T03:48:28;41.92;;;19.92;;
38427;SDS011;24211;49.980;19.776;2024-02-15T03:50:56;41.20;;;18.73;;
38427;SDS011;24211;49.980;19.776;2024-02-15T03:53:23;37.45;;;18.55;;
38427;SDS011;24211;49.980;19.776;2024-02-15T03:58:46;40.05;;;18.17;;
38427;SDS011;24211;49.980;19.776;2024-02-15T04:01:13;38.13;;;18.38;;
38427;SDS011;24211;49.980;19.776;2024-02-15T04:06:36;42.67;;;19.75;;
38427;SDS011;24211;49.980;19.776;2024-02-15T04:09:03;44.13;;;20.67;;
38427;SDS011;24211;49.980;19.776;2024-02-15T04:11:36;43.22;;;18.80;;
38427;SDS011;24211;49.980;19.776;2024-02-15T04:14:19;40.03;;;18.15;;
38427;SDS011;24211;49.980;19.776;2024-02-15T04:16:47;41.20;;;18.40;;
38427;SDS011;24211;49.980;19.776;2024-02-15T04:19:14;38.17;;;17.58;;
38427;SDS011;24211;49.980;19.776;2024-02-15T04:21:42;39.05;;;17.33;;
38427;SDS011;24211;49.980;19.776;2024-02-15T04:24:18;41.60;;;19.75;;
38427;SDS011;24211;49.980;19.776;2024-02-15T04:26:47;43.50;;;20.30;;
38427;SDS011;24211;49.980;19.776;2024-02-15T04:29:24;47.65;;;20.65;;
38427;SDS011;24211;49.980;19.776;2024-02-15T04:32:32;44.90;;;21.20;;
38427;SDS011;24211;49.980;19.776;2024-02-15T04:35:01;42.00;;;20.85;;
38427;SDS011;24211;49.980;19.776;2024-02-15T04:37:57;51.25;;;22.35;;
38427;SDS011;24211;49.980;19.776;2024-02-15T04:40:40;47.03;;;20.85;;
38427;SDS011;24211;49.980;19.776;2024-02-15T04:43:08;45.92;;;21.25;;
38427;SDS011;24211;49.980;19.776;2024-02-15T04:45:35;45.60;;;20.80;;
38427;SDS011;24211;49.980;19.776;2024-02-15T04:48:02;45.58;;;21.02;;
38427;SDS011;24211;49.980;19.776;2024-02-15T04:53:42;42.17;;;20.38;;
38427;SDS011;24211;49.980;19.776;2024-02-15T04:56:25;45.70;;;20.13;;
38427;SDS011;24211;49.980;19.776;2024-02-15T04:58:52;39.95;;;18.83;;
38427;SDS011;24211;49.980;19.776;2024-02-15T05:01:37;40.45;;;19.95;;
38427;SDS011;24211;49.980;19.776;2024-02-15T05:07:13;42.50;;;18.80;;
38427;SDS011;24211;49.980;19.776;2024-02-15T05:16:07;38.55;;;17.25;;
38427;SDS011;24211;49.980;19.776;2024-02-15T05:18:35;34.15;;;17.15;;
38427;SDS011;24211;49.980;19.776;2024-02-15T05:21:04;32.25;;;16.85;;
38427;SDS011;24211;49.980;19.776;2024-02-15T05:23:36;36.92;;;17.13;;
38427;SDS011;24211;49.980;19.776;2024-02-15T05:26:08;33.60;;;15.48;;
38427;SDS011;24211;49.980;19.776;2024-02-15T05:28:43;32.53;;;16.23;;
38427;SDS011;24211;49.980;19.776;2024-02-15T05:31:20;31.55;;;15.23;;
38427;SDS011;24211;49.980;19.776;2024-02-15T05:33:49;33.28;;;14.82;;
38427;SDS011;24211;49.980;19.776;2024-02-15T05:36:28;32.25;;;14.80;;
38427;SDS011;24211;49.980;19.776;2024-02-15T05:38:56;35.28;;;16.17;;
38427;SDS011;24211;49.980;19.776;2024-02-15T05:53:54;34.95;;;15.27;;
38427;SDS011;24211;49.980;19.776;2024-02-15T05:56:34;34.10;;;16.08;;
38427;SDS011;24211;49.980;19.776;2024-02-15T06:02:57;38.72;;;16.38;;
38427;SDS011;24211;49.980;19.776;2024-02-15T06:08:18;32.85;;;14.55;;
38427;SDS011;24211;49.980;19.776;2024-02-15T06:10:47;36.78;;;15.52;;
38427;SDS011;24211;49.980;19.776;2024-02-15T06:13:41;34.38;;;16.48;;
38427;SDS011;24211;49.980;19.776;2024-02-15T06:16:08;37.55;;;16.40;;
38427;SDS011;24211;49.980;19.776;2024-02-15T06:21:29;33.80;;;15.43;;
38427;SDS011;24211;49.980;19.776;2024-02-15T06:26:49;32.85;;;14.27;;
38427;SDS011;24211;49.980;19.776;2024-02-15T06:29:29;29.60;;;14.07;;
38427;SDS011;24211;49.980;19.776;2024-02-15T06:32:21;32.72;;;14.88;;
38427;SDS011;24211;49.980;19.776;2024-02-15T06:35:36;30.60;;;13.68;;
38427;SDS011;24211;49.980;19.776;2024-02-15T06:41:59;29.25;;;13.50;;
38427;SDS011;24211;49.980;19.776;2024-02-15T06:44:37;27.73;;;13.88;;
38427;SDS011;24211;49.980;19.776;2024-02-15T06:50:00;28.85;;;12.88;;
38427;SDS011;24211;49.980;19.776;2024-02-15T06:52:27;26.02;;;12.13;;
38427;SDS011;24211;49.980;19.776;2024-02-15T06:54:55;25.50;;;12.60;;
38427;SDS011;24211;49.980;19.776;2024-02-15T06:57:22;31.52;;;14.85;;
38427;SDS011;24211;49.980;19.776;2024-02-15T06:59:50;28.45;;;14.63;;
38427;SDS011;24211;49.980;19.776;2024-02-15T07:02:18;29.70;;;13.77;;
38427;SDS011;24211;49.980;19.776;2024-02-15T07:04:50;30.20;;;13.77;;
38427;SDS011;24211;49.980;19.776;2024-02-15T07:07:18;29.90;;;14.05;;
38427;SDS011;24211;49.980;19.776;2024-02-15T07:13:05;33.17;;;16.10;;
38427;SDS011;24211;49.980;19.776;2024-02-15T07:15:34;38.50;;;17.65;;
38427;SDS011;24211;49.980;19.776;2024-02-15T07:18:05;40.00;;;17.30;;
38427;SDS011;24211;49.980;19.776;2024-02-15T07:20:33;37.42;;;17.70;;
38427;SDS011;24211;49.980;19.776;2024-02-15T07:23:01;38.13;;;17.25;;
38427;SDS011;24211;49.980;19.776;2024-02-15T07:25:44;36.13;;;16.95;;
38427;SDS011;24211;49.980;19.776;2024-02-15T07:28:15;43.72;;;18.40;;
38427;SDS011;24211;49.980;19.776;2024-02-15T07:30:42;41.63;;;19.60;;
38427;SDS011;24211;49.980;19.776;2024-02-15T07:33:11;41.60;;;19.55;;
38427;SDS011;24211;49.980;19.776;2024-02-15T07:35:38;40.20;;;19.02;;
38427;SDS011;24211;49.980;19.776;2024-02-15T07:38:14;40.30;;;18.08;;
38427;SDS011;24211;49.980;19.776;2024-02-15T07:40:41;42.80;;;18.85;;
38427;SDS011;24211;49.980;19.776;2024-02-15T07:43:28;43.10;;;18.77;;
38427;SDS011;24211;49.980;19.776;2024-02-15T07:49:15;56.22;;;22.80;;
38427;SDS011;24211;49.980;19.776;2024-02-15T07:51:52;57.75;;;22.45;;
38427;SDS011;24211;49.980;19.776;2024-02-15T07:54:24;58.42;;;23.35;;
38427;SDS011;24211;49.980;19.776;2024-02-15T07:56:51;50.92;;;20.10;;
38427;SDS011;24211;49.980;19.776;2024-02-15T08:02:38;44.78;;;20.10;;
38427;SDS011;24211;49.980;19.776;2024-02-15T08:05:14;50.65;;;20.80;;
38427;SDS011;24211;49.980;19.776;2024-02-15T08:07:42;46.38;;;20.55;;
38427;SDS011;24211;49.980;19.776;2024-02-15T08:10:11;43.35;;;19.83;;
38427;SDS011;24211;49.980;19.776;2024-02-15T08:12:42;43.42;;;19.77;;
38427;SDS011;24211;49.980;19.776;2024-02-15T08:15:14;45.20;;;19.65;;
38427;SDS011;24211;49.980;19.776;2024-02-15T08:20:47;43.35;;;19.40;;
38427;SDS011;24211;49.980;19.776;2024-02-15T08:26:10;47.67;;;20.48;;
38427;SDS011;24211;49.980;19.776;2024-02-15T08:28:40;34.95;;;18.27;;
38427;SDS011;24211;49.980;19.776;2024-02-15T08:31:10;37.55;;;17.92;;
38427;SDS011;24211;49.980;19.776;2024-02-15T08:37:13;38.25;;;18.10;;
38427;SDS011;24211;49.980;19.776;2024-02-15T08:39:54;36.00;;;16.65;;
38427;SDS011;24211;49.980;19.776;2024-02-15T08:42:42;34.37;;;15.87;;
38427;SDS011;24211;49.980;19.776;2024-02-15T08:45:41;32.25;;;15.75;;
38427;SDS011;24211;49.980;19.776;2024-02-15T08:48:10;32.65;;;15.38;;
38427;SDS011;24211;49.980;19.776;2024-02-15T08:50:39;35.47;;;15.98;;
38427;SDS011;24211;49.980;19.776;2024-02-15T08:56:06;33.38;;;15.55;;
38427;SDS011;24211;49.980;19.776;2024-02-15T08:58:37;30.90;;;15.10;;
38427;SDS011;24211;49.980;19.776;2024-02-15T09:01:06;40.45;;;19.08;;
38427;SDS011;24211;49.980;19.776;2024-02-15T09:03:35;38.90;;;19.08;;
38427;SDS011;24211;49.980;19.776;2024-02-15T09:06:03;29.92;;;14.77;;
38427;SDS011;24211;49.980;19.776;2024-02-15T09:08:42;38.42;;;18.20;;
38427;SDS011;24211;49.980;19.776;2024-02-15T09:11:28;41.55;;;19.50;;
38427;SDS011;24211;49.980;19.776;2024-02-15T09:13:58;37.15;;;15.38;;
38427;SDS011;24211;49.980;19.776;2024-02-15T09:16:25;36.08;;;15.43;;
38427;SDS011;24211;49.980;19.776;2024-02-15T09:18:54;29.65;;;14.70;;
38427;SDS011;24211;49.980;19.776;2024-02-15T09:21:22;31.48;;;14.98;;
38427;SDS011;24211;49.980;19.776;2024-02-15T09:23:55;28.08;;;13.85;;
38427;SDS011;24211;49.980;19.776;2024-02-15T09:26:26;31.05;;;14.15;;
38427;SDS011;24211;49.980;19.776;2024-02-15T09:28:56;29.90;;;14.05;;
38427;SDS011;24211;49.980;19.776;2024-02-15T09:31:23;26.83;;;13.40;;
38427;SDS011;24211;49.980;19.776;2024-02-15T09:33:53;30.55;;;13.90;;
38427;SDS011;24211;49.980;19.776;2024-02-15T09:36:33;25.30;;;13.43;;
38427;SDS011;24211;49.980;19.776;2024-02-15T09:39:08;26.90;;;13.32;;
38427;SDS011;24211;49.980;19.776;2024-02-15T09:41:40;39.28;;;19.33;;
38427;SDS011;24211;49.980;19.776;2024-02-15T09:44:11;38.65;;;18.40;;
38427;SDS011;24211;49.980;19.776;2024-02-15T09:46:42;41.75;;;18.35;;
38427;SDS011;24211;49.980;19.776;2024-02-15T09:50:20;28.95;;;14.63;;
38427;SDS011;24211;49.980;19.776;2024-02-15T09:52:55;28.50;;;14.00;;
38427;SDS011;24211;49.980;19.776;2024-02-15T09:55:25;29.30;;;14.10;;
38427;SDS011;24211;49.980;19.776;2024-02-15T09:57:54;30.50;;;14.90;;
38427;SDS011;24211;49.980;19.776;2024-02-15T10:00:22;28.98;;;13.48;;
38427;SDS011;24211;49.980;19.776;2024-02-15T10:02:50;41.22;;;18.13;;
38427;SDS011;24211;49.980;19.776;2024-02-15T10:05:29;36.63;;;16.20;;
38427;SDS011;24211;49.980;19.776;2024-02-15T10:07:57;44.40;;;19.33;;
38427;SDS011;24211;49.980;19.776;2024-02-15T10:10:33;42.33;;;18.85;;
38427;SDS011;24211;49.980;19.776;2024-02-15T10:13:02;35.47;;;15.95;;
38427;SDS011;24211;49.980;19.776;2024-02-15T10:19:15;34.85;;;14.48;;
38427;SDS011;24211;49.980;19.776;2024-02-15T10:21:44;29.50;;;12.55;;
38427;SDS011;24211;49.980;19.776;2024-02-15T10:33:43;22.38;;;10.13;;
38427;SDS011;24211;49.980;19.776;2024-02-15T10:36:11;20.00;;;9.63;;
38427;SDS011;24211;49.980;19.776;2024-02-15T10:42:00;16.00;;;7.60;;
38427;SDS011;24211;49.980;19.776;2024-02-15T10:47:19;12.65;;;5.85;;
38427;SDS011;24211;49.980;19.776;2024-02-15T10:49:50;12.38;;;5.82;;
38427;SDS011;24211;49.980;19.776;2024-02-15T10:54:47;9.25;;;4.85;;
38427;SDS011;24211;49.980;19.776;2024-02-15T10:57:32;10.48;;;4.80;;
38427;SDS011;24211;49.980;19.776;2024-02-15T11:00:04;8.75;;;4.20;;
38427;SDS011;24211;49.980;19.776;2024-02-15T11:02:58;7.88;;;4.15;;
38427;SDS011;24211;49.980;19.776;2024-02-15T11:05:33;8.80;;;4.18;;
38427;SDS011;24211;49.980;19.776;2024-02-15T11:08:13;7.75;;;3.35;;
38427;SDS011;24211;49.980;19.776;2024-02-15T11:10:53;7.72;;;3.85;;
38427;SDS011;24211;49.980;19.776;2024-02-15T11:13:25;8.45;;;3.78;;
38427;SDS011;24211;49.980;19.776;2024-02-15T11:22:09;6.47;;;2.95;;
38427;SDS011;24211;49.980;19.776;2024-02-15T11:24:50;7.80;;;3.67;;
38427;SDS011;24211;49.980;19.776;2024-02-15T11:27:29;6.90;;;3.20;;
38427;SDS011;24211;49.980;19.776;2024-02-15T11:29:59;7.55;;;3.00;;
38427;SDS011;24211;49.980;19.776;2024-02-15T11:32:49;6.80;;;2.97;;
38427;SDS011;24211;49.980;19.776;2024-02-15T11:42:24;6.95;;;2.95;;
38427;SDS011;24211;49.980;19.776;2024-02-15T11:45:07;7.25;;;3.30;;
38427;SDS011;24211;49.980;19.776;2024-02-15T11:48:11;6.45;;;3.00;;
38427;SDS011;24211;49.980;19.776;2024-02-15T11:51:06;6.78;;;2.85;;
38427;SDS011;24211;49.980;19.776;2024-02-15T11:53:45;5.80;;;2.67;;
38427;SDS011;24211;49.980;19.776;2024-02-15T11:56:56;6.55;;;2.97;;
38427;SDS011;24211;49.980;19.776;2024-02-15T12:06:30;5.65;;;2.78;;
38427;SDS011;24211;49.980;19.776;2024-02-15T12:09:18;5.50;;;2.70;;
38427;SDS011;24211;49.980;19.776;2024-02-15T12:12:19;5.70;;;2.72;;
38427;SDS011;24211;49.980;19.776;2024-02-15T12:15:14;6.82;;;3.00;;
38427;SDS011;24211;49.980;19.776;2024-02-15T12:21:23;7.18;;;2.63;;
38427;SDS011;24211;49.980;19.776;2024-02-15T12:23:56;5.70;;;2.80;;
38427;SDS011;24211;49.980;19.776;2024-02-15T12:26:24;7.43;;;3.05;;
38427;SDS011;24211;49.980;19.776;2024-02-15T12:28:54;6.15;;;2.90;;
38427;SDS011;24211;49.980;19.776;2024-02-15T12:31:49;6.07;;;2.95;;
38427;SDS011;24211;49.980;19.776;2024-02-15T12:34:17;7.82;;;3.10;;
38427;SDS011;24211;49.980;19.776;2024-02-15T12:43:16;5.68;;;2.40;;
38427;SDS011;24211;49.980;19.776;2024-02-15T12:45:44;5.80;;;2.70;;
38427;SDS011;24211;49.980;19.776;2024-02-15T12:48:12;4.75;;;2.60;;
38427;SDS011;24211;49.980;19.776;2024-02-15T12:50:42;5.75;;;2.80;;
38427;SDS011;24211;49.980;19.776;2024-02-15T12:59:00;6.20;;;3.00;;
38427;SDS011;24211;49.980;19.776;2024-02-15T13:01:27;6.35;;;2.70;;
38427;SDS011;24211;49.980;19.776;2024-02-15T13:03:56;6.47;;;3.00;;
38427;SDS011;24211;49.980;19.776;2024-02-15T13:06:23;6.53;;;3.00;;
38427;SDS011;24211;49.980;19.776;2024-02-15T13:08:52;5.13;;;2.60;;
38427;SDS011;24211;49.980;19.776;2024-02-15T13:11:20;7.03;;;3.05;;
38427;SDS011;24211;49.980;19.776;2024-02-15T13:13:50;5.88;;;2.95;;
38427;SDS011;24211;49.980;19.776;2024-02-15T13:19:28;6.15;;;3.03;;
38427;SDS011;24211;49.980;19.776;2024-02-15T13:21:56;6.00;;;2.90;;
38427;SDS011;24211;49.980;19.776;2024-02-15T13:24:28;6.05;;;3.00;;
38427;SDS011;24211;49.980;19.776;2024-02-15T13:26:55;6.28;;;2.58;;
38427;SDS011;24211;49.980;19.776;2024-02-15T13:29:38;5.88;;;2.97;;
38427;SDS011;24211;49.980;19.776;2024-02-15T13:32:20;6.43;;;3.10;;
38427;SDS011;24211;49.980;19.776;2024-02-15T13:34:48;5.00;;;2.75;;
38427;SDS011;24211;49.980;19.776;2024-02-15T13:37:19;7.03;;;3.00;;
38427;SDS011;24211;49.980;19.776;2024-02-15T13:43:05;6.15;;;2.95;;
38427;SDS011;24211;49.980;19.776;2024-02-15T13:45:47;4.72;;;2.50;;
38427;SDS011;24211;49.980;19.776;2024-02-15T13:51:09;5.70;;;2.45;;
38427;SDS011;24211;49.980;19.776;2024-02-15T13:54:02;5.50;;;2.50;;
38427;SDS011;24211;49.980;19.776;2024-02-15T13:56:45;5.50;;;2.60;;
38427;SDS011;24211;49.980;19.776;2024-02-15T13:59:12;6.32;;;2.70;;
38427;SDS011;24211;49.980;19.776;2024-02-15T14:04:36;5.05;;;2.60;;
38427;SDS011;24211;49.980;19.776;2024-02-15T14:21:27;4.28;;;2.05;;
38427;SDS011;24211;49.980;19.776;2024-02-15T14:23:55;4.25;;;1.85;;
38427;SDS011;24211;49.980;19.776;2024-02-15T14:26:23;4.50;;;2.20;;
38427;SDS011;24211;49.980;19.776;2024-02-15T14:28:53;4.25;;;2.05;;
38427;SDS011;24211;49.980;19.776;2024-02-15T14:31:25;4.85;;;2.00;;
38427;SDS011;24211;49.980;19.776;2024-02-15T14:34:17;4.07;;;1.90;;
38427;SDS011;24211;49.980;19.776;2024-02-15T14:43:22;4.50;;;1.90;;
38427;SDS011;24211;49.980;19.776;2024-02-15T14:45:56;4.18;;;2.00;;
38427;SDS011;24211;49.980;19.776;2024-02-15T14:48:25;4.57;;;1.98;;
38427;SDS011;24211;49.980;19.776;2024-02-15T14:50:53;4.25;;;2.00;;
38427;SDS011;24211;49.980;19.776;2024-02-15T14:53:28;4.13;;;1.85;;
38427;SDS011;24211;49.980;19.776;2024-02-15T14:56:33;4.43;;;1.98;;
38427;SDS011;24211;49.980;19.776;2024-02-15T14:59:17;4.60;;;2.22;;
38427;SDS011;24211;49.980;19.776;2024-02-15T15:01:44;4.45;;;2.03;;
38427;SDS011;24211;49.980;19.776;2024-02-15T15:07:23;6.50;;;2.50;;
38427;SDS011;24211;49.980;19.776;2024-02-15T15:10:12;4.82;;;2.30;;
38427;SDS011;24211;49.980;19.776;2024-02-15T15:19:11;5.60;;;2.70;;
38427;SDS011;24211;49.980;19.776;2024-02-15T15:25:24;5.95;;;3.00;;
38427;SDS011;24211;49.980;19.776;2024-02-15T15:27:59;5.07;;;2.60;;
38427;SDS011;24211;49.980;19.776;2024-02-15T15:30:26;5.38;;;2.70;;
38427;SDS011;24211;49.980;19.776;2024-02-15T15:32:53;5.32;;;2.67;;
38427;SDS011;24211;49.980;19.776;2024-02-15T15:35:28;5.22;;;2.20;;
38427;SDS011;24211;49.980;19.776;2024-02-15T15:38:00;4.30;;;2.17;;
38427;SDS011;24211;49.980;19.776;2024-02-15T15:40:29;4.82;;;2.20;;
38427;SDS011;24211;49.980;19.776;2024-02-15T15:42:58;4.70;;;2.45;;
38427;SDS011;24211;49.980;19.776;2024-02-15T15:45:40;5.30;;;2.35;;
38427;SDS011;24211;49.980;19.776;2024-02-15T15:48:07;5.72;;;2.20;;
38427;SDS011;24211;49.980;19.776;2024-02-15T15:50:40;5.05;;;2.38;;
38427;SDS011;24211;49.980;19.776;2024-02-15T15:53:09;5.60;;;2.42;;
38427;SDS011;24211;49.980;19.776;2024-02-15T15:55:40;4.57;;;2.30;;
38427;SDS011;24211;49.980;19.776;2024-02-15T15:58:32;5.78;;;2.58;;
38427;SDS011;24211;49.980;19.776;2024-02-15T16:01:01;4.50;;;2.40;;
38427;SDS011;24211;49.980;19.776;2024-02-15T16:03:31;5.43;;;2.35;;
38427;SDS011;24211;49.980;19.776;2024-02-15T16:06:00;4.68;;;2.40;;
38427;SDS011;24211;49.980;19.776;2024-02-15T16:08:30;6.38;;;2.45;;
38427;SDS011;24211;49.980;19.776;2024-02-15T16:10:57;5.00;;;2.30;;
38427;SDS011;24211;49.980;19.776;2024-02-15T16:13:28;8.25;;;2.92;;
38427;SDS011;24211;49.980;19.776;2024-02-15T16:15:55;6.43;;;3.13;;
38427;SDS011;24211;49.980;19.776;2024-02-15T16:18:25;7.28;;;2.85;;
38427;SDS011;24211;49.980;19.776;2024-02-15T16:20:52;8.68;;;3.42;;
38427;SDS011;24211;49.980;19.776;2024-02-15T16:23:21;7.13;;;3.35;;
38427;SDS011;24211;49.980;19.776;2024-02-15T16:25:51;8.55;;;4.20;;
38427;SDS011;24211;49.980;19.776;2024-02-15T16:28:19;9.02;;;4.13;;
38427;SDS011;24211;49.980;19.776;2024-02-15T16:30:47;9.57;;;4.25;;
38427;SDS011;24211;49.980;19.776;2024-02-15T16:33:24;8.90;;;4.60;;
38427;SDS011;24211;49.980;19.776;2024-02-15T16:35:59;10.77;;;4.82;;
38427;SDS011;24211;49.980;19.776;2024-02-15T16:41:28;9.18;;;4.43;;
38427;SDS011;24211;49.980;19.776;2024-02-15T16:43:56;9.15;;;4.88;;
38427;SDS011;24211;49.980;19.776;2024-02-15T16:46:24;11.02;;;4.15;;
38427;SDS011;24211;49.980;19.776;2024-02-15T16:51:45;8.48;;;4.57;;
38427;SDS011;24211;49.980;19.776;2024-02-15T16:54:12;8.73;;;4.10;;
38427;SDS011;24211;49.980;19.776;2024-02-15T16:56:41;9.23;;;4.30;;
38427;SDS011;24211;49.980;19.776;2024-02-15T16:59:09;8.65;;;4.03;;
38427;SDS011;24211;49.980;19.776;2024-02-15T17:01:42;10.05;;;4.45;;
38427;SDS011;24211;49.980;19.776;2024-02-15T17:07:05;14.65;;;5.75;;
38427;SDS011;24211;49.980;19.776;2024-02-15T17:09:33;11.63;;;5.82;;
38427;SDS011;24211;49.980;19.776;2024-02-15T17:12:00;13.95;;;6.38;;
38427;SDS011;24211;49.980;19.776;2024-02-15T17:14:32;13.15;;;6.10;;
38427;SDS011;24211;49.980;19.776;2024-02-15T17:17:01;21.00;;;8.35;;
38427;SDS011;24211;49.980;19.776;2024-02-15T17:19:28;20.98;;;8.70;;
38427;SDS011;24211;49.980;19.776;2024-02-15T17:21:57;23.95;;;9.48;;
38427;SDS011;24211;49.980;19.776;2024-02-15T17:24:24;24.00;;;8.68;;
38427;SDS011;24211;49.980;19.776;2024-02-15T17:26:58;22.15;;;8.88;;
38427;SDS011;24211;49.980;19.776;2024-02-15T17:29:27;20.13;;;8.60;;
38427;SDS011;24211;49.980;19.776;2024-02-15T17:31:56;20.45;;;8.70;;
38427;SDS011;24211;49.980;19.776;2024-02-15T17:34:25;19.10;;;8.90;;
38427;SDS011;24211;49.980;19.776;2024-02-15T17:37:11;22.60;;;8.57;;
38427;SDS011;24211;49.980;19.776;2024-02-15T17:39:40;16.42;;;7.25;;
38427;SDS011;24211;49.980;19.776;2024-02-15T17:42:10;23.02;;;7.53;;
38427;SDS011;24211;49.980;19.776;2024-02-15T17:44:46;18.00;;;7.25;;
38427;SDS011;24211;49.980;19.776;2024-02-15T17:47:14;17.30;;;7.40;;
38427;SDS011;24211;49.980;19.776;2024-02-15T17:49:45;16.83;;;7.53;;
38427;SDS011;24211;49.980;19.776;2024-02-15T17:52:13;20.42;;;8.82;;
38427;SDS011;24211;49.980;19.776;2024-02-15T17:54:42;23.02;;;9.95;;
38427;SDS011;24211;49.980;19.776;2024-02-15T17:57:14;23.10;;;9.60;;
38427;SDS011;24211;49.980;19.776;2024-02-15T17:59:44;25.25;;;9.57;;
38427;SDS011;24211;49.980;19.776;2024-02-15T18:02:13;22.77;;;9.48;;
38427;SDS011;24211;49.980;19.776;2024-02-15T18:04:50;20.85;;;9.18;;
38427;SDS011;24211;49.980;19.776;2024-02-15T18:07:22;23.23;;;9.50;;
38427;SDS011;24211;49.980;19.776;2024-02-15T18:09:50;23.55;;;10.07;;
38427;SDS011;24211;49.980;19.776;2024-02-15T18:12:19;26.17;;;10.00;;
38427;SDS011;24211;49.980;19.776;2024-02-15T18:14:54;20.23;;;9.15;;
38427;SDS011;24211;49.980;19.776;2024-02-15T18:17:32;21.02;;;9.20;;
38427;SDS011;24211;49.980;19.776;2024-02-15T18:20:00;21.55;;;9.23;;
38427;SDS011;24211;49.980;19.776;2024-02-15T18:22:29;22.35;;;9.15;;
38427;SDS011;24211;49.980;19.776;2024-02-15T18:24:58;21.83;;;9.02;;
38427;SDS011;24211;49.980;19.776;2024-02-15T18:27:26;23.45;;;9.82;;
38427;SDS011;24211;49.980;19.776;2024-02-15T18:29:55;23.23;;;9.48;;
38427;SDS011;24211;49.980;19.776;2024-02-15T18:32:25;24.83;;;10.52;;
38427;SDS011;24211;49.980;19.776;2024-02-15T18:34:52;27.02;;;12.02;;
38427;SDS011;24211;49.980;19.776;2024-02-15T18:37:20;45.45;;;18.92;;
38427;SDS011;24211;49.980;19.776;2024-02-15T18:39:47;71.70;;;25.60;;
38427;SDS011;24211;49.980;19.776;2024-02-15T18:42:14;63.72;;;24.05;;
38427;SDS011;24211;49.980;19.776;2024-02-15T18:44:43;72.22;;;25.50;;
38427;SDS011;24211;49.980;19.776;2024-02-15T18:47:12;61.58;;;24.85;;
38427;SDS011;24211;49.980;19.776;2024-02-15T18:49:39;60.13;;;24.17;;
38427;SDS011;24211;49.980;19.776;2024-02-15T18:52:19;62.60;;;24.13;;
38427;SDS011;24211;49.980;19.776;2024-02-15T18:54:47;57.92;;;23.35;;
38427;SDS011;24211;49.980;19.776;2024-02-15T18:57:15;56.92;;;22.02;;
38427;SDS011;24211;49.980;19.776;2024-02-15T18:59:42;59.47;;;22.70;;
38427;SDS011;24211;49.980;19.776;2024-02-15T19:02:11;57.50;;;21.58;;